sensor_id;sensor_type;location;lat;lon;timestamp;P1;durP1;ratioP1;P2;durP2;ratioP2
19800;SDS011;10060;48.274;12.214;2023-08-06T00:01:25;8.93;;;6.60;;
19800;SDS011;10060;48.274;12.214;2023-08-06T00:04:27;7.20;;;6.50;;
19800;SDS011;10060;48.274;12.214;2023-08-06T00:07:30;6.97;;;6.07;;
19800;SDS011;10060;48.274;12.214;2023-08-06T00:10:32;7.45;;;6.60;;
19800;SDS011;10060;48.274;12.214;2023-08-06T00:13:35;7.97;;;5.90;;
19800;SDS011;10060;48.274;12.214;2023-08-06T00:16:37;8.00;;;5.70;;
19800;SDS011;10060;48.274;12.214;2023-08-06T00:19:39;8.00;;;5.38;;
19800;SDS011;10060;48.274;12.214;2023-08-06T00:22:43;10.38;;;5.00;;
19800;SDS011;10060;48.274;12.214;2023-08-06T00:25:45;5.50;;;4.88;;
19800;SDS011;10060;48.274;12.214;2023-08-06T00:28:47;6.93;;;5.20;;
19800;SDS011;10060;48.274;12.214;2023-08-06T00:31:49;8.23;;;5.50;;
19800;SDS011;10060;48.274;12.214;2023-08-06T00:34:51;6.18;;;5.10;;
19800;SDS011;10060;48.274;12.214;2023-08-06T00:37:54;6.95;;;4.65;;
19800;SDS011;10060;48.274;12.214;2023-08-06T00:40:57;7.75;;;5.60;;
19800;SDS011;10060;48.274;12.214;2023-08-06T00:43:59;6.60;;;5.45;;
19800;SDS011;10060;48.274;12.214;2023-08-06T00:47:01;8.07;;;5.45;;
19800;SDS011;10060;48.274;12.214;2023-08-06T00:50:03;6.72;;;5.05;;
19800;SDS011;10060;48.274;12.214;2023-08-06T00:53:07;8.75;;;4.75;;
19800;SDS011;10060;48.274;12.214;2023-08-06T00:56:10;6.05;;;4.97;;
19800;SDS011;10060;48.274;12.214;2023-08-06T00:59:12;7.75;;;5.20;;
19800;SDS011;10060;48.274;12.214;2023-08-06T01:02:15;7.05;;;5.07;;
19800;SDS011;10060;48.274;12.214;2023-08-06T01:05:17;8.43;;;5.60;;
19800;SDS011;10060;48.274;12.214;2023-08-06T01:08:22;7.07;;;5.18;;
19800;SDS011;10060;48.274;12.214;2023-08-06T01:11:35;7.65;;;5.43;;
19800;SDS011;10060;48.274;12.214;2023-08-06T01:14:43;7.20;;;5.47;;
19800;SDS011;10060;48.274;12.214;2023-08-06T01:17:48;6.90;;;5.50;;
19800;SDS011;10060;48.274;12.214;2023-08-06T01:20:51;9.90;;;5.85;;
19800;SDS011;10060;48.274;12.214;2023-08-06T01:23:53;9.82;;;5.88;;
19800;SDS011;10060;48.274;12.214;2023-08-06T01:26:57;9.27;;;6.25;;
19800;SDS011;10060;48.274;12.214;2023-08-06T01:30:04;8.52;;;6.43;;
19800;SDS011;10060;48.274;12.214;2023-08-06T01:33:09;8.80;;;6.35;;
19800;SDS011;10060;48.274;12.214;2023-08-06T01:36:13;12.03;;;6.23;;
19800;SDS011;10060;48.274;12.214;2023-08-06T01:39:16;8.68;;;6.65;;
19800;SDS011;10060;48.274;12.214;2023-08-06T01:42:20;10.27;;;7.07;;
19800;SDS011;10060;48.274;12.214;2023-08-06T01:45:23;9.48;;;6.05;;
19800;SDS011;10060;48.274;12.214;2023-08-06T01:48:25;10.30;;;7.30;;
19800;SDS011;10060;48.274;12.214;2023-08-06T01:51:28;11.05;;;6.63;;
19800;SDS011;10060;48.274;12.214;2023-08-06T01:54:30;11.55;;;7.28;;
19800;SDS011;10060;48.274;12.214;2023-08-06T01:57:32;10.13;;;6.53;;
19800;SDS011;10060;48.274;12.214;2023-08-06T02:00:35;8.82;;;6.88;;
19800;SDS011;10060;48.274;12.214;2023-08-06T02:03:37;10.00;;;7.05;;
19800;SDS011;10060;48.274;12.214;2023-08-06T02:06:40;9.60;;;6.95;;
19800;SDS011;10060;48.274;12.214;2023-08-06T02:09:42;10.40;;;7.30;;
19800;SDS011;10060;48.274;12.214;2023-08-06T02:12:44;10.75;;;7.05;;
19800;SDS011;10060;48.274;12.214;2023-08-06T02:15:47;10.05;;;6.75;;
19800;SDS011;10060;48.274;12.214;2023-08-06T02:18:49;8.30;;;6.65;;
19800;SDS011;10060;48.274;12.214;2023-08-06T02:21:52;8.70;;;5.85;;
19800;SDS011;10060;48.274;12.214;2023-08-06T02:24:54;8.82;;;5.72;;
19800;SDS011;10060;48.274;12.214;2023-08-06T02:27:56;6.70;;;4.77;;
19800;SDS011;10060;48.274;12.214;2023-08-06T02:30:58;5.53;;;4.00;;
19800;SDS011;10060;48.274;12.214;2023-08-06T02:34:01;4.13;;;3.47;;
19800;SDS011;10060;48.274;12.214;2023-08-06T02:37:04;4.20;;;3.60;;
19800;SDS011;10060;48.274;12.214;2023-08-06T02:40:07;5.23;;;3.97;;
19800;SDS011;10060;48.274;12.214;2023-08-06T02:43:09;7.43;;;3.80;;
19800;SDS011;10060;48.274;12.214;2023-08-06T02:46:12;5.73;;;4.00;;
19800;SDS011;10060;48.274;12.214;2023-08-06T02:49:14;5.07;;;4.17;;
19800;SDS011;10060;48.274;12.214;2023-08-06T02:52:18;6.57;;;4.63;;
19800;SDS011;10060;48.274;12.214;2023-08-06T02:55:20;6.00;;;4.67;;
19800;SDS011;10060;48.274;12.214;2023-08-06T02:58:22;5.10;;;4.23;;
19800;SDS011;10060;48.274;12.214;2023-08-06T03:01:24;7.33;;;5.00;;
19800;SDS011;10060;48.274;12.214;2023-08-06T03:04:28;5.33;;;4.30;;
19800;SDS011;10060;48.274;12.214;2023-08-06T03:07:32;5.93;;;4.33;;
19800;SDS011;10060;48.274;12.214;2023-08-06T03:10:36;6.90;;;4.87;;
19800;SDS011;10060;48.274;12.214;2023-08-06T03:13:38;7.13;;;4.83;;
19800;SDS011;10060;48.274;12.214;2023-08-06T03:16:40;7.17;;;4.63;;
19800;SDS011;10060;48.274;12.214;2023-08-06T03:19:42;6.43;;;4.97;;
19800;SDS011;10060;48.274;12.214;2023-08-06T03:22:45;6.40;;;5.07;;
19800;SDS011;10060;48.274;12.214;2023-08-06T03:25:47;6.13;;;5.27;;
19800;SDS011;10060;48.274;12.214;2023-08-06T03:28:49;6.20;;;5.00;;
19800;SDS011;10060;48.274;12.214;2023-08-06T03:31:52;6.77;;;4.80;;
19800;SDS011;10060;48.274;12.214;2023-08-06T03:34:54;6.03;;;5.00;;
19800;SDS011;10060;48.274;12.214;2023-08-06T03:37:57;6.60;;;5.03;;
19800;SDS011;10060;48.274;12.214;2023-08-06T03:40:59;4.63;;;4.13;;
19800;SDS011;10060;48.274;12.214;2023-08-06T03:44:01;6.53;;;5.20;;
19800;SDS011;10060;48.274;12.214;2023-08-06T03:47:04;6.60;;;4.93;;
19800;SDS011;10060;48.274;12.214;2023-08-06T03:50:06;5.47;;;4.83;;
19800;SDS011;10060;48.274;12.214;2023-08-06T03:53:10;6.10;;;4.63;;
19800;SDS011;10060;48.274;12.214;2023-08-06T03:56:12;5.93;;;4.90;;
19800;SDS011;10060;48.274;12.214;2023-08-06T03:59:14;8.63;;;5.27;;
19800;SDS011;10060;48.274;12.214;2023-08-06T04:02:16;7.93;;;5.37;;
19800;SDS011;10060;48.274;12.214;2023-08-06T04:05:18;7.93;;;5.13;;
19800;SDS011;10060;48.274;12.214;2023-08-06T04:08:21;7.33;;;4.67;;
19800;SDS011;10060;48.274;12.214;2023-08-06T04:11:23;6.43;;;4.87;;
19800;SDS011;10060;48.274;12.214;2023-08-06T04:14:26;6.00;;;5.00;;
19800;SDS011;10060;48.274;12.214;2023-08-06T04:17:28;6.67;;;5.00;;
19800;SDS011;10060;48.274;12.214;2023-08-06T04:20:30;7.90;;;5.00;;
19800;SDS011;10060;48.274;12.214;2023-08-06T04:23:33;7.90;;;5.33;;
19800;SDS011;10060;48.274;12.214;2023-08-06T04:26:35;8.70;;;5.70;;
19800;SDS011;10060;48.274;12.214;2023-08-06T04:29:37;8.20;;;5.07;;
19800;SDS011;10060;48.274;12.214;2023-08-06T04:32:39;7.63;;;5.43;;
19800;SDS011;10060;48.274;12.214;2023-08-06T04:35:41;7.57;;;4.73;;
19800;SDS011;10060;48.274;12.214;2023-08-06T04:38:45;5.63;;;4.67;;
19800;SDS011;10060;48.274;12.214;2023-08-06T04:41:47;9.60;;;4.70;;
19800;SDS011;10060;48.274;12.214;2023-08-06T04:44:49;9.30;;;5.17;;
19800;SDS011;10060;48.274;12.214;2023-08-06T04:47:52;7.60;;;5.00;;
19800;SDS011;10060;48.274;12.214;2023-08-06T04:50:54;7.38;;;4.63;;
19800;SDS011;10060;48.274;12.214;2023-08-06T04:53:57;5.85;;;4.57;;
19800;SDS011;10060;48.274;12.214;2023-08-06T04:56:59;7.97;;;4.47;;
19800;SDS011;10060;48.274;12.214;2023-08-06T05:00:02;5.15;;;4.35;;
19800;SDS011;10060;48.274;12.214;2023-08-06T05:03:05;10.38;;;4.45;;
19800;SDS011;10060;48.274;12.214;2023-08-06T05:06:07;6.88;;;4.20;;
19800;SDS011;10060;48.274;12.214;2023-08-06T05:09:10;7.73;;;4.27;;
19800;SDS011;10060;48.274;12.214;2023-08-06T05:12:13;5.38;;;4.30;;
19800;SDS011;10060;48.274;12.214;2023-08-06T05:15:15;8.45;;;4.15;;
19800;SDS011;10060;48.274;12.214;2023-08-06T05:18:17;6.00;;;4.38;;
19800;SDS011;10060;48.274;12.214;2023-08-06T05:21:19;4.97;;;4.47;;
19800;SDS011;10060;48.274;12.214;2023-08-06T05:24:22;5.70;;;4.03;;
19800;SDS011;10060;48.274;12.214;2023-08-06T05:27:24;5.37;;;4.10;;
19800;SDS011;10060;48.274;12.214;2023-08-06T05:30:26;4.20;;;3.80;;
19800;SDS011;10060;48.274;12.214;2023-08-06T05:33:28;8.15;;;4.38;;
19800;SDS011;10060;48.274;12.214;2023-08-06T05:36:30;4.80;;;4.25;;
19800;SDS011;10060;48.274;12.214;2023-08-06T05:39:34;4.65;;;4.07;;
19800;SDS011;10060;48.274;12.214;2023-08-06T05:42:36;4.18;;;3.75;;
19800;SDS011;10060;48.274;12.214;2023-08-06T05:45:38;5.75;;;4.15;;
19800;SDS011;10060;48.274;12.214;2023-08-06T05:48:40;4.65;;;4.05;;
19800;SDS011;10060;48.274;12.214;2023-08-06T05:51:42;4.00;;;3.60;;
19800;SDS011;10060;48.274;12.214;2023-08-06T05:54:46;6.28;;;3.60;;
19800;SDS011;10060;48.274;12.214;2023-08-06T05:57:48;5.35;;;3.95;;
19800;SDS011;10060;48.274;12.214;2023-08-06T06:00:52;7.47;;;3.75;;
19800;SDS011;10060;48.274;12.214;2023-08-06T06:03:54;4.88;;;3.50;;
19800;SDS011;10060;48.274;12.214;2023-08-06T06:06:56;6.43;;;3.50;;
19800;SDS011;10060;48.274;12.214;2023-08-06T06:10:00;4.78;;;2.88;;
19800;SDS011;10060;48.274;12.214;2023-08-06T06:13:02;4.43;;;3.50;;
19800;SDS011;10060;48.274;12.214;2023-08-06T06:16:04;4.85;;;3.10;;
19800;SDS011;10060;48.274;12.214;2023-08-06T06:19:06;4.00;;;2.92;;
19800;SDS011;10060;48.274;12.214;2023-08-06T06:22:08;3.22;;;2.78;;
19800;SDS011;10060;48.274;12.214;2023-08-06T06:25:12;5.20;;;2.92;;
19800;SDS011;10060;48.274;12.214;2023-08-06T06:28:14;4.47;;;2.70;;
19800;SDS011;10060;48.274;12.214;2023-08-06T06:31:16;4.60;;;2.80;;
19800;SDS011;10060;48.274;12.214;2023-08-06T06:34:18;4.72;;;2.95;;
19800;SDS011;10060;48.274;12.214;2023-08-06T06:37:20;3.22;;;2.80;;
19800;SDS011;10060;48.274;12.214;2023-08-06T06:40:24;5.88;;;3.63;;
19800;SDS011;10060;48.274;12.214;2023-08-06T06:43:26;4.40;;;2.92;;
19800;SDS011;10060;48.274;12.214;2023-08-06T06:46:28;3.17;;;2.70;;
19800;SDS011;10060;48.274;12.214;2023-08-06T06:49:30;4.55;;;3.20;;
19800;SDS011;10060;48.274;12.214;2023-08-06T06:52:32;3.92;;;2.45;;
19800;SDS011;10060;48.274;12.214;2023-08-06T06:55:35;3.40;;;2.70;;
19800;SDS011;10060;48.274;12.214;2023-08-06T06:58:37;4.72;;;2.75;;
19800;SDS011;10060;48.274;12.214;2023-08-06T07:01:41;2.95;;;2.15;;
19800;SDS011;10060;48.274;12.214;2023-08-06T07:04:43;3.83;;;2.25;;
19800;SDS011;10060;48.274;12.214;2023-08-06T07:07:45;3.17;;;2.65;;
19800;SDS011;10060;48.274;12.214;2023-08-06T07:10:48;4.47;;;2.70;;
19800;SDS011;10060;48.274;12.214;2023-08-06T07:13:55;3.58;;;2.60;;
19800;SDS011;10060;48.274;12.214;2023-08-06T07:16:58;5.07;;;2.65;;
19800;SDS011;10060;48.274;12.214;2023-08-06T07:20:00;5.72;;;3.17;;
19800;SDS011;10060;48.274;12.214;2023-08-06T07:23:03;4.90;;;2.73;;
19800;SDS011;10060;48.274;12.214;2023-08-06T07:26:06;3.97;;;2.60;;
19800;SDS011;10060;48.274;12.214;2023-08-06T07:29:09;5.32;;;2.47;;
19800;SDS011;10060;48.274;12.214;2023-08-06T07:32:11;3.08;;;2.30;;
19800;SDS011;10060;48.274;12.214;2023-08-06T07:35:13;2.47;;;2.13;;
19800;SDS011;10060;48.274;12.214;2023-08-06T07:38:15;5.38;;;2.63;;
19800;SDS011;10060;48.274;12.214;2023-08-06T07:41:19;3.00;;;2.13;;
19800;SDS011;10060;48.274;12.214;2023-08-06T07:44:21;3.50;;;1.70;;
19800;SDS011;10060;48.274;12.214;2023-08-06T07:47:23;2.10;;;1.60;;
19800;SDS011;10060;48.274;12.214;2023-08-06T07:50:26;2.65;;;1.80;;
19800;SDS011;10060;48.274;12.214;2023-08-06T07:53:28;3.78;;;2.08;;
19800;SDS011;10060;48.274;12.214;2023-08-06T07:56:32;3.55;;;1.77;;
19800;SDS011;10060;48.274;12.214;2023-08-06T07:59:36;2.10;;;1.42;;
19800;SDS011;10060;48.274;12.214;2023-08-06T08:02:38;2.63;;;1.60;;
19800;SDS011;10060;48.274;12.214;2023-08-06T08:05:40;2.15;;;1.50;;
19800;SDS011;10060;48.274;12.214;2023-08-06T08:08:42;1.90;;;1.70;;
19800;SDS011;10060;48.274;12.214;2023-08-06T08:11:45;1.63;;;1.45;;
19800;SDS011;10060;48.274;12.214;2023-08-06T08:14:48;2.97;;;1.77;;
19800;SDS011;10060;48.274;12.214;2023-08-06T08:17:50;3.50;;;1.30;;
19800;SDS011;10060;48.274;12.214;2023-08-06T08:20:52;1.73;;;1.48;;
19800;SDS011;10060;48.274;12.214;2023-08-06T08:23:54;3.40;;;1.55;;
19800;SDS011;10060;48.274;12.214;2023-08-06T08:26:57;2.15;;;1.20;;
19800;SDS011;10060;48.274;12.214;2023-08-06T08:29:59;1.75;;;1.20;;
19800;SDS011;10060;48.274;12.214;2023-08-06T08:33:02;1.17;;;1.00;;
19800;SDS011;10060;48.274;12.214;2023-08-06T08:36:04;2.28;;;0.93;;
19800;SDS011;10060;48.274;12.214;2023-08-06T08:39:06;2.15;;;0.80;;
19800;SDS011;10060;48.274;12.214;2023-08-06T08:42:10;1.40;;;0.70;;
19800;SDS011;10060;48.274;12.214;2023-08-06T08:45:13;1.08;;;0.65;;
19800;SDS011;10060;48.274;12.214;2023-08-06T08:48:15;1.08;;;0.85;;
19800;SDS011;10060;48.274;12.214;2023-08-06T08:51:18;0.73;;;0.73;;
19800;SDS011;10060;48.274;12.214;2023-08-06T08:54:20;1.58;;;0.60;;
19800;SDS011;10060;48.274;12.214;2023-08-06T08:57:26;2.63;;;0.90;;
19800;SDS011;10060;48.274;12.214;2023-08-06T09:00:28;2.03;;;0.75;;
19800;SDS011;10060;48.274;12.214;2023-08-06T09:03:30;1.52;;;1.00;;
19800;SDS011;10060;48.274;12.214;2023-08-06T09:06:32;1.05;;;0.80;;
19800;SDS011;10060;48.274;12.214;2023-08-06T09:09:35;1.70;;;0.98;;
19800;SDS011;10060;48.274;12.214;2023-08-06T09:12:40;0.73;;;0.73;;
19800;SDS011;10060;48.274;12.214;2023-08-06T09:15:43;1.85;;;0.95;;
19800;SDS011;10060;48.274;12.214;2023-08-06T09:18:45;0.80;;;0.80;;
19800;SDS011;10060;48.274;12.214;2023-08-06T09:21:47;2.33;;;0.88;;
19800;SDS011;10060;48.274;12.214;2023-08-06T09:24:52;0.88;;;0.85;;
19800;SDS011;10060;48.274;12.214;2023-08-06T09:27:55;1.35;;;0.88;;
19800;SDS011;10060;48.274;12.214;2023-08-06T09:30:59;1.75;;;0.93;;
19800;SDS011;10060;48.274;12.214;2023-08-06T09:34:01;2.30;;;1.00;;
19800;SDS011;10060;48.274;12.214;2023-08-06T09:37:04;5.95;;;1.58;;
19800;SDS011;10060;48.274;12.214;2023-08-06T09:40:20;0.95;;;0.80;;
19800;SDS011;10060;48.274;12.214;2023-08-06T09:43:25;2.42;;;0.90;;
19800;SDS011;10060;48.274;12.214;2023-08-06T09:46:27;1.10;;;0.80;;
19800;SDS011;10060;48.274;12.214;2023-08-06T09:49:40;0.85;;;0.85;;
19800;SDS011;10060;48.274;12.214;2023-08-06T09:52:42;2.35;;;0.98;;
19800;SDS011;10060;48.274;12.214;2023-08-06T09:55:45;1.33;;;0.52;;
19800;SDS011;10060;48.274;12.214;2023-08-06T09:58:49;0.70;;;0.70;;
19800;SDS011;10060;48.274;12.214;2023-08-06T10:01:51;2.38;;;0.70;;
19800;SDS011;10060;48.274;12.214;2023-08-06T10:04:53;0.95;;;0.70;;
19800;SDS011;10060;48.274;12.214;2023-08-06T10:07:57;0.93;;;0.73;;
19800;SDS011;10060;48.274;12.214;2023-08-06T10:10:59;3.80;;;0.70;;
19800;SDS011;10060;48.274;12.214;2023-08-06T10:14:06;1.30;;;0.90;;
19800;SDS011;10060;48.274;12.214;2023-08-06T10:17:10;2.47;;;0.75;;
19800;SDS011;10060;48.274;12.214;2023-08-06T10:20:12;0.50;;;0.50;;
19800;SDS011;10060;48.274;12.214;2023-08-06T10:23:15;0.95;;;0.60;;
19800;SDS011;10060;48.274;12.214;2023-08-06T10:26:17;1.95;;;1.08;;
19800;SDS011;10060;48.274;12.214;2023-08-06T10:29:36;1.05;;;0.50;;
19800;SDS011;10060;48.274;12.214;2023-08-06T10:32:46;2.13;;;0.70;;
19800;SDS011;10060;48.274;12.214;2023-08-06T10:35:48;2.40;;;1.23;;
19800;SDS011;10060;48.274;12.214;2023-08-06T10:38:52;1.10;;;0.98;;
19800;SDS011;10060;48.274;12.214;2023-08-06T10:41:54;1.75;;;0.60;;
19800;SDS011;10060;48.274;12.214;2023-08-06T10:45:13;2.15;;;0.70;;
19800;SDS011;10060;48.274;12.214;2023-08-06T10:48:19;4.00;;;1.17;;
19800;SDS011;10060;48.274;12.214;2023-08-06T10:51:30;0.50;;;0.50;;
19800;SDS011;10060;48.274;12.214;2023-08-06T10:54:32;1.58;;;0.80;;
19800;SDS011;10060;48.274;12.214;2023-08-06T10:57:35;0.70;;;0.70;;
19800;SDS011;10060;48.274;12.214;2023-08-06T11:00:39;1.10;;;0.68;;
19800;SDS011;10060;48.274;12.214;2023-08-06T11:03:41;0.80;;;0.70;;
19800;SDS011;10060;48.274;12.214;2023-08-06T11:06:43;1.80;;;0.60;;
19800;SDS011;10060;48.274;12.214;2023-08-06T11:09:49;1.13;;;0.50;;
19800;SDS011;10060;48.274;12.214;2023-08-06T11:12:52;0.60;;;0.60;;
19800;SDS011;10060;48.274;12.214;2023-08-06T11:15:55;0.40;;;0.40;;
19800;SDS011;10060;48.274;12.214;2023-08-06T11:18:58;2.38;;;0.60;;
19800;SDS011;10060;48.274;12.214;2023-08-06T11:22:00;0.40;;;0.40;;
19800;SDS011;10060;48.274;12.214;2023-08-06T11:25:02;0.50;;;0.50;;
19800;SDS011;10060;48.274;12.214;2023-08-06T11:28:04;6.57;;;0.50;;
19800;SDS011;10060;48.274;12.214;2023-08-06T11:31:08;1.33;;;0.50;;
19800;SDS011;10060;48.274;12.214;2023-08-06T11:34:20;0.50;;;0.50;;
19800;SDS011;10060;48.274;12.214;2023-08-06T11:37:22;0.93;;;0.47;;
19800;SDS011;10060;48.274;12.214;2023-08-06T11:40:25;1.55;;;0.50;;
19800;SDS011;10060;48.274;12.214;2023-08-06T11:43:29;0.50;;;0.50;;
19800;SDS011;10060;48.274;12.214;2023-08-06T11:49:51;0.40;;;0.40;;
19800;SDS011;10060;48.274;12.214;2023-08-06T11:52:54;0.63;;;0.50;;
19800;SDS011;10060;48.274;12.214;2023-08-06T11:55:56;2.60;;;0.60;;
19800;SDS011;10060;48.274;12.214;2023-08-06T11:58:59;0.40;;;0.40;;
19800;SDS011;10060;48.274;12.214;2023-08-06T12:02:01;1.27;;;0.50;;
19800;SDS011;10060;48.274;12.214;2023-08-06T12:05:09;0.40;;;0.40;;
19800;SDS011;10060;48.274;12.214;2023-08-06T12:08:12;0.55;;;0.50;;
19800;SDS011;10060;48.274;12.214;2023-08-06T12:11:14;0.50;;;0.50;;
19800;SDS011;10060;48.274;12.214;2023-08-06T12:14:16;0.50;;;0.50;;
19800;SDS011;10060;48.274;12.214;2023-08-06T12:17:18;2.35;;;0.40;;
19800;SDS011;10060;48.274;12.214;2023-08-06T12:20:21;0.50;;;0.50;;
19800;SDS011;10060;48.274;12.214;2023-08-06T12:23:23;4.57;;;0.55;;
19800;SDS011;10060;48.274;12.214;2023-08-06T12:26:26;1.17;;;0.50;;
19800;SDS011;10060;48.274;12.214;2023-08-06T12:29:28;0.40;;;0.40;;
19800;SDS011;10060;48.274;12.214;2023-08-06T12:32:31;0.50;;;0.50;;
19800;SDS011;10060;48.274;12.214;2023-08-06T12:35:34;0.70;;;0.70;;
19800;SDS011;10060;48.274;12.214;2023-08-06T12:38:37;0.52;;;0.52;;
19800;SDS011;10060;48.274;12.214;2023-08-06T12:41:39;0.40;;;0.40;;
19800;SDS011;10060;48.274;12.214;2023-08-06T12:44:43;0.40;;;0.40;;
19800;SDS011;10060;48.274;12.214;2023-08-06T12:47:45;0.40;;;0.40;;
19800;SDS011;10060;48.274;12.214;2023-08-06T12:50:50;0.85;;;0.50;;
19800;SDS011;10060;48.274;12.214;2023-08-06T12:53:52;0.50;;;0.50;;
19800;SDS011;10060;48.274;12.214;2023-08-06T12:56:54;0.40;;;0.40;;
19800;SDS011;10060;48.274;12.214;2023-08-06T12:59:56;0.93;;;0.60;;
19800;SDS011;10060;48.274;12.214;2023-08-06T13:02:58;0.38;;;0.38;;
19800;SDS011;10060;48.274;12.214;2023-08-06T13:06:02;1.85;;;0.40;;
19800;SDS011;10060;48.274;12.214;2023-08-06T13:09:04;1.02;;;0.50;;
19800;SDS011;10060;48.274;12.214;2023-08-06T13:12:08;0.30;;;0.30;;
19800;SDS011;10060;48.274;12.214;2023-08-06T13:15:11;4.40;;;0.82;;
19800;SDS011;10060;48.274;12.214;2023-08-06T13:18:14;0.80;;;0.52;;
19800;SDS011;10060;48.274;12.214;2023-08-06T13:21:18;0.40;;;0.40;;
19800;SDS011;10060;48.274;12.214;2023-08-06T13:24:20;0.50;;;0.50;;
19800;SDS011;10060;48.274;12.214;2023-08-06T13:27:22;0.40;;;0.40;;
19800;SDS011;10060;48.274;12.214;2023-08-06T13:30:24;0.50;;;0.50;;
19800;SDS011;10060;48.274;12.214;2023-08-06T13:33:26;0.40;;;0.40;;
19800;SDS011;10060;48.274;12.214;2023-08-06T13:36:29;0.45;;;0.40;;
19800;SDS011;10060;48.274;12.214;2023-08-06T13:39:32;0.65;;;0.50;;
19800;SDS011;10060;48.274;12.214;2023-08-06T13:42:34;0.40;;;0.40;;
19800;SDS011;10060;48.274;12.214;2023-08-06T13:45:36;0.40;;;0.40;;
19800;SDS011;10060;48.274;12.214;2023-08-06T13:48:39;0.40;;;0.40;;
19800;SDS011;10060;48.274;12.214;2023-08-06T13:51:42;0.47;;;0.47;;
19800;SDS011;10060;48.274;12.214;2023-08-06T13:54:44;0.82;;;0.52;;
19800;SDS011;10060;48.274;12.214;2023-08-06T13:57:46;0.95;;;0.40;;
19800;SDS011;10060;48.274;12.214;2023-08-06T14:00:49;0.50;;;0.50;;
19800;SDS011;10060;48.274;12.214;2023-08-06T14:03:53;0.40;;;0.40;;
19800;SDS011;10060;48.274;12.214;2023-08-06T14:06:56;0.50;;;0.47;;
19800;SDS011;10060;48.274;12.214;2023-08-06T14:09:58;0.55;;;0.38;;
19800;SDS011;10060;48.274;12.214;2023-08-06T14:13:00;1.95;;;0.50;;
19800;SDS011;10060;48.274;12.214;2023-08-06T14:16:03;0.85;;;0.40;;
19800;SDS011;10060;48.274;12.214;2023-08-06T14:19:05;0.40;;;0.40;;
19800;SDS011;10060;48.274;12.214;2023-08-06T14:22:08;1.35;;;0.50;;
19800;SDS011;10060;48.274;12.214;2023-08-06T14:25:10;0.47;;;0.47;;
19800;SDS011;10060;48.274;12.214;2023-08-06T14:28:12;0.60;;;0.47;;
19800;SDS011;10060;48.274;12.214;2023-08-06T14:31:14;0.40;;;0.40;;
19800;SDS011;10060;48.274;12.214;2023-08-06T14:34:16;0.50;;;0.50;;
19800;SDS011;10060;48.274;12.214;2023-08-06T14:37:23;1.88;;;0.45;;
19800;SDS011;10060;48.274;12.214;2023-08-06T14:40:25;0.80;;;0.60;;
19800;SDS011;10060;48.274;12.214;2023-08-06T14:43:33;0.50;;;0.50;;
19800;SDS011;10060;48.274;12.214;2023-08-06T14:46:35;1.17;;;0.50;;
19800;SDS011;10060;48.274;12.214;2023-08-06T14:49:37;0.40;;;0.40;;
19800;SDS011;10060;48.274;12.214;2023-08-06T14:52:41;1.23;;;0.60;;
19800;SDS011;10060;48.274;12.214;2023-08-06T14:55:43;1.20;;;0.60;;
19800;SDS011;10060;48.274;12.214;2023-08-06T14:58:45;0.50;;;0.50;;
19800;SDS011;10060;48.274;12.214;2023-08-06T15:01:47;0.75;;;0.50;;
19800;SDS011;10060;48.274;12.214;2023-08-06T15:04:51;0.75;;;0.55;;
19800;SDS011;10060;48.274;12.214;2023-08-06T15:07:54;0.50;;;0.50;;
19800;SDS011;10060;48.274;12.214;2023-08-06T15:10:56;0.60;;;0.60;;
19800;SDS011;10060;48.274;12.214;2023-08-06T15:14:01;0.52;;;0.52;;
19800;SDS011;10060;48.274;12.214;2023-08-06T15:17:05;0.57;;;0.50;;
19800;SDS011;10060;48.274;12.214;2023-08-06T15:20:07;0.50;;;0.50;;
19800;SDS011;10060;48.274;12.214;2023-08-06T15:23:11;0.90;;;0.60;;
19800;SDS011;10060;48.274;12.214;2023-08-06T15:26:13;0.87;;;0.50;;
19800;SDS011;10060;48.274;12.214;2023-08-06T15:29:15;0.70;;;0.70;;
19800;SDS011;10060;48.274;12.214;2023-08-06T15:32:17;0.60;;;0.60;;
19800;SDS011;10060;48.274;12.214;2023-08-06T15:35:20;1.07;;;0.70;;
19800;SDS011;10060;48.274;12.214;2023-08-06T15:38:24;1.53;;;0.70;;
19800;SDS011;10060;48.274;12.214;2023-08-06T15:41:26;0.60;;;0.60;;
19800;SDS011;10060;48.274;12.214;2023-08-06T15:44:28;0.60;;;0.60;;
19800;SDS011;10060;48.274;12.214;2023-08-06T15:47:30;0.60;;;0.60;;
19800;SDS011;10060;48.274;12.214;2023-08-06T15:50:39;2.20;;;0.87;;
19800;SDS011;10060;48.274;12.214;2023-08-06T15:53:42;0.60;;;0.60;;
19800;SDS011;10060;48.274;12.214;2023-08-06T15:56:44;0.97;;;0.77;;
19800;SDS011;10060;48.274;12.214;2023-08-06T15:59:46;0.80;;;0.80;;
19800;SDS011;10060;48.274;12.214;2023-08-06T16:02:48;1.97;;;0.80;;
19800;SDS011;10060;48.274;12.214;2023-08-06T16:05:50;1.67;;;0.90;;
19800;SDS011;10060;48.274;12.214;2023-08-06T16:08:54;0.70;;;0.70;;
19800;SDS011;10060;48.274;12.214;2023-08-06T16:11:56;1.30;;;0.70;;
19800;SDS011;10060;48.274;12.214;2023-08-06T16:14:58;1.13;;;0.97;;
19800;SDS011;10060;48.274;12.214;2023-08-06T16:18:00;1.50;;;0.80;;
19800;SDS011;10060;48.274;12.214;2023-08-06T16:21:02;1.33;;;1.10;;
19800;SDS011;10060;48.274;12.214;2023-08-06T16:24:06;0.63;;;0.63;;
19800;SDS011;10060;48.274;12.214;2023-08-06T16:27:09;1.00;;;0.80;;
19800;SDS011;10060;48.274;12.214;2023-08-06T16:30:11;0.83;;;0.80;;
19800;SDS011;10060;48.274;12.214;2023-08-06T16:33:14;1.73;;;0.80;;
19800;SDS011;10060;48.274;12.214;2023-08-06T16:36:16;0.80;;;0.80;;
19800;SDS011;10060;48.274;12.214;2023-08-06T16:39:19;0.87;;;0.80;;
19800;SDS011;10060;48.274;12.214;2023-08-06T16:42:23;1.13;;;0.70;;
19800;SDS011;10060;48.274;12.214;2023-08-06T16:45:26;0.80;;;0.80;;
19800;SDS011;10060;48.274;12.214;2023-08-06T16:48:28;0.73;;;0.73;;
19800;SDS011;10060;48.274;12.214;2023-08-06T16:51:30;1.27;;;1.17;;
19800;SDS011;10060;48.274;12.214;2023-08-06T16:54:34;0.87;;;0.80;;
19800;SDS011;10060;48.274;12.214;2023-08-06T16:57:36;0.70;;;0.70;;
19800;SDS011;10060;48.274;12.214;2023-08-06T17:00:38;0.70;;;0.70;;
19800;SDS011;10060;48.274;12.214;2023-08-06T17:03:40;0.80;;;0.80;;
19800;SDS011;10060;48.274;12.214;2023-08-06T17:06:42;0.83;;;0.70;;
19800;SDS011;10060;48.274;12.214;2023-08-06T17:09:46;0.80;;;0.80;;
19800;SDS011;10060;48.274;12.214;2023-08-06T17:12:48;0.70;;;0.70;;
19800;SDS011;10060;48.274;12.214;2023-08-06T17:15:51;0.70;;;0.70;;
19800;SDS011;10060;48.274;12.214;2023-08-06T17:18:53;2.60;;;1.57;;
19800;SDS011;10060;48.274;12.214;2023-08-06T17:21:55;0.53;;;0.53;;
19800;SDS011;10060;48.274;12.214;2023-08-06T17:24:58;0.67;;;0.67;;
19800;SDS011;10060;48.274;12.214;2023-08-06T17:28:00;0.97;;;0.87;;
19800;SDS011;10060;48.274;12.214;2023-08-06T17:31:03;2.00;;;0.80;;
19800;SDS011;10060;48.274;12.214;2023-08-06T17:34:06;0.87;;;0.67;;
19800;SDS011;10060;48.274;12.214;2023-08-06T17:37:08;1.63;;;0.90;;
19800;SDS011;10060;48.274;12.214;2023-08-06T17:40:12;0.70;;;0.70;;
19800;SDS011;10060;48.274;12.214;2023-08-06T17:43:14;0.80;;;0.80;;
19800;SDS011;10060;48.274;12.214;2023-08-06T17:46:16;0.70;;;0.70;;
19800;SDS011;10060;48.274;12.214;2023-08-06T17:49:18;1.00;;;0.93;;
19800;SDS011;10060;48.274;12.214;2023-08-06T17:52:20;0.80;;;0.80;;
19800;SDS011;10060;48.274;12.214;2023-08-06T17:55:24;0.70;;;0.70;;
19800;SDS011;10060;48.274;12.214;2023-08-06T17:58:27;1.10;;;0.90;;
19800;SDS011;10060;48.274;12.214;2023-08-06T18:01:29;0.60;;;0.60;;
19800;SDS011;10060;48.274;12.214;2023-08-06T18:04:31;1.23;;;0.90;;
19800;SDS011;10060;48.274;12.214;2023-08-06T18:07:33;0.87;;;0.73;;